sensor_id;sensor_type;location;lat;lon;timestamp;temperature;humidity
52743;DHT22;55583;53.012;6.556;2022-11-20T00:00:47;-1.30;99.90
52743;DHT22;55583;53.012;6.556;2022-11-20T00:03:13;-1.20;99.90
52743;DHT22;55583;53.012;6.556;2022-11-20T00:05:38;-1.20;99.90
52743;DHT22;55583;53.012;6.556;2022-11-20T00:08:04;-1.20;99.90
52743;DHT22;55583;53.012;6.556;2022-11-20T00:10:30;-1.20;99.90
52743;DHT22;55583;53.012;6.556;2022-11-20T00:12:58;-1.20;99.90
52743;DHT22;55583;53.012;6.556;2022-11-20T00:15:23;-1.10;99.90
52743;DHT22;55583;53.012;6.556;2022-11-20T00:17:49;-1.10;99.90
52743;DHT22;55583;53.012;6.556;2022-11-20T00:20:15;-1.10;99.90
52743;DHT22;55583;53.012;6.556;2022-11-20T00:22:41;-1.10;99.90
52743;DHT22;55583;53.012;6.556;2022-11-20T00:25:07;-1.00;99.90
52743;DHT22;55583;53.012;6.556;2022-11-20T00:27:32;-1.00;99.90
52743;DHT22;55583;53.012;6.556;2022-11-20T00:29:58;-1.00;99.90
52743;DHT22;55583;53.012;6.556;2022-11-20T00:32:23;-1.00;99.90
52743;DHT22;55583;53.012;6.556;2022-11-20T00:34:49;-0.90;99.90
52743;DHT22;55583;53.012;6.556;2022-11-20T00:37:15;-0.90;99.90
52743;DHT22;55583;53.012;6.556;2022-11-20T00:39:40;-0.90;99.90
52743;DHT22;55583;53.012;6.556;2022-11-20T00:42:06;-0.90;99.90
52743;DHT22;55583;53.012;6.556;2022-11-20T00:44:32;-0.80;99.90
52743;DHT22;55583;53.012;6.556;2022-11-20T00:46:57;-0.80;99.90
52743;DHT22;55583;53.012;6.556;2022-11-20T00:49:23;-0.80;99.90
52743;DHT22;55583;53.012;6.556;2022-11-20T00:51:48;-0.80;99.90
52743;DHT22;55583;53.012;6.556;2022-11-20T00:54:14;-0.80;99.90
52743;DHT22;55583;53.012;6.556;2022-11-20T00:56:39;-0.80;99.90
52743;DHT22;55583;53.012;6.556;2022-11-20T00:59:05;-0.70;99.90
52743;DHT22;55583;53.012;6.556;2022-11-20T01:01:31;-0.70;99.90
52743;DHT22;55583;53.012;6.556;2022-11-20T01:03:58;-0.70;99.90
52743;DHT22;55583;53.012;6.556;2022-11-20T01:06:27;-0.70;99.90
52743;DHT22;55583;53.012;6.556;2022-11-20T01:08:55;-0.50;99.90
52743;DHT22;55583;53.012;6.556;2022-11-20T01:11:27;-0.70;99.90
52743;DHT22;55583;53.012;6.556;2022-11-20T01:13:53;-0.70;99.90
52743;DHT22;55583;53.012;6.556;2022-11-20T01:16:20;-0.70;99.90
52743;DHT22;55583;53.012;6.556;2022-11-20T01:18:48;-0.70;99.90
52743;DHT22;55583;53.012;6.556;2022-11-20T01:21:17;-0.60;99.90
52743;DHT22;55583;53.012;6.556;2022-11-20T01:23:44;-0.60;99.90
52743;DHT22;55583;53.012;6.556;2022-11-20T01:26:12;-0.70;99.90
52743;DHT22;55583;53.012;6.556;2022-11-20T01:28:39;-0.60;99.90
52743;DHT22;55583;53.012;6.556;2022-11-20T01:31:23;-0.60;99.90
52743;DHT22;55583;53.012;6.556;2022-11-20T01:33:51;-0.60;99.90
52743;DHT22;55583;53.012;6.556;2022-11-20T01:36:18;-0.60;99.90
52743;DHT22;55583;53.012;6.556;2022-11-20T01:38:44;-0.60;99.90
52743;DHT22;55583;53.012;6.556;2022-11-20T01:41:12;-0.60;99.90
52743;DHT22;55583;53.012;6.556;2022-11-20T01:43:58;-0.60;99.90
52743;DHT22;55583;53.012;6.556;2022-11-20T01:46:24;-0.50;99.90
52743;DHT22;55583;53.012;6.556;2022-11-20T01:48:54;-0.50;99.90
52743;DHT22;55583;53.012;6.556;2022-11-20T01:51:33;-0.60;99.90
52743;DHT22;55583;53.012;6.556;2022-11-20T01:54:03;-0.50;99.90
52743;DHT22;55583;53.012;6.556;2022-11-20T01:56:32;-0.50;99.90
52743;DHT22;55583;53.012;6.556;2022-11-20T01:59:01;-0.50;99.90
52743;DHT22;55583;53.012;6.556;2022-11-20T02:01:27;-0.50;99.90
52743;DHT22;55583;53.012;6.556;2022-11-20T02:03:53;-0.50;99.90
52743;DHT22;55583;53.012;6.556;2022-11-20T02:06:26;-0.50;99.90
52743;DHT22;55583;53.012;6.556;2022-11-20T02:08:53;-0.50;99.90
52743;DHT22;55583;53.012;6.556;2022-11-20T02:11:20;-0.60;99.90
52743;DHT22;55583;53.012;6.556;2022-11-20T02:13:46;-0.50;99.90
52743;DHT22;55583;53.012;6.556;2022-11-20T02:16:20;-0.60;99.90
52743;DHT22;55583;53.012;6.556;2022-11-20T02:18:46;-0.50;99.90
52743;DHT22;55583;53.012;6.556;2022-11-20T02:24:18;-0.50;99.90
52743;DHT22;55583;53.012;6.556;2022-11-20T02:26:58;-0.50;99.90
52743;DHT22;55583;53.012;6.556;2022-11-20T02:29:28;-0.50;99.90
52743;DHT22;55583;53.012;6.556;2022-11-20T02:31:58;-0.50;99.90
52743;DHT22;55583;53.012;6.556;2022-11-20T02:34:24;-0.50;99.90
52743;DHT22;55583;53.012;6.556;2022-11-20T02:36:51;-0.50;99.90
52743;DHT22;55583;53.012;6.556;2022-11-20T02:39:18;-0.50;99.90
52743;DHT22;55583;53.012;6.556;2022-11-20T02:41:44;-0.50;99.90
52743;DHT22;55583;53.012;6.556;2022-11-20T02:44:10;-0.50;99.90
52743;DHT22;55583;53.012;6.556;2022-11-20T02:46:35;-0.50;99.90
52743;DHT22;55583;53.012;6.556;2022-11-20T02:49:04;-0.40;99.90
52743;DHT22;55583;53.012;6.556;2022-11-20T02:51:31;-0.40;99.90
52743;DHT22;55583;53.012;6.556;2022-11-20T02:53:57;-0.40;99.90
52743;DHT22;55583;53.012;6.556;2022-11-20T02:56:23;-0.40;99.90
52743;DHT22;55583;53.012;6.556;2022-11-20T02:58:49;-0.40;99.90
52743;DHT22;55583;53.012;6.556;2022-11-20T03:01:15;-0.40;99.90
52743;DHT22;55583;53.012;6.556;2022-11-20T03:03:40;-0.40;99.90
52743;DHT22;55583;53.012;6.556;2022-11-20T03:06:06;-0.40;99.90
52743;DHT22;55583;53.012;6.556;2022-11-20T03:08:33;-0.30;99.90
52743;DHT22;55583;53.012;6.556;2022-11-20T03:11:03;-0.30;99.90
52743;DHT22;55583;53.012;6.556;2022-11-20T03:13:28;-0.30;99.90
52743;DHT22;55583;53.012;6.556;2022-11-20T03:15:54;-0.30;99.90
52743;DHT22;55583;53.012;6.556;2022-11-20T03:18:20;-0.30;99.90
52743;DHT22;55583;53.012;6.556;2022-11-20T03:20:45;-0.30;99.90
52743;DHT22;55583;53.012;6.556;2022-11-20T03:23:11;-0.30;99.90
52743;DHT22;55583;53.012;6.556;2022-11-20T03:25:36;-0.30;99.90
52743;DHT22;55583;53.012;6.556;2022-11-20T03:28:02;-0.20;99.90
52743;DHT22;55583;53.012;6.556;2022-11-20T03:30:27;-0.30;99.90
52743;DHT22;55583;53.012;6.556;2022-11-20T03:32:53;-0.30;99.90
52743;DHT22;55583;53.012;6.556;2022-11-20T03:35:19;-0.20;99.90
52743;DHT22;55583;53.012;6.556;2022-11-20T03:37:45;-0.20;99.90
52743;DHT22;55583;53.012;6.556;2022-11-20T03:40:11;-0.20;99.90
52743;DHT22;55583;53.012;6.556;2022-11-20T03:42:37;-0.20;99.90
52743;DHT22;55583;53.012;6.556;2022-11-20T03:45:12;-0.20;99.90
52743;DHT22;55583;53.012;6.556;2022-11-20T03:47:38;-0.20;99.90
52743;DHT22;55583;53.012;6.556;2022-11-20T03:50:04;-0.20;99.90
52743;DHT22;55583;53.012;6.556;2022-11-20T03:52:30;-0.20;99.90
52743;DHT22;55583;53.012;6.556;2022-11-20T03:54:56;-0.20;99.90
52743;DHT22;55583;53.012;6.556;2022-11-20T03:57:22;-0.20;99.90
52743;DHT22;55583;53.012;6.556;2022-11-20T03:59:47;-0.10;99.90
52743;DHT22;55583;53.012;6.556;2022-11-20T04:02:13;-0.10;99.90
52743;DHT22;55583;53.012;6.556;2022-11-20T04:04:39;-0.10;99.90
52743;DHT22;55583;53.012;6.556;2022-11-20T04:07:04;-0.10;99.90
52743;DHT22;55583;53.012;6.556;2022-11-20T04:09:30;-0.10;99.90
52743;DHT22;55583;53.012;6.556;2022-11-20T04:11:55;-0.10;99.90
52743;DHT22;55583;53.012;6.556;2022-11-20T04:14:21;-0.10;99.90
52743;DHT22;55583;53.012;6.556;2022-11-20T04:16:47;-0.10;99.90
52743;DHT22;55583;53.012;6.556;2022-11-20T04:19:14;-0.10;99.90
52743;DHT22;55583;53.012;6.556;2022-11-20T04:21:41;-0.10;99.90
52743;DHT22;55583;53.012;6.556;2022-11-20T04:24:07;-0.10;99.90
52743;DHT22;55583;53.012;6.556;2022-11-20T04:26:34;0.80;99.90
52743;DHT22;55583;53.012;6.556;2022-11-20T04:28:59;-0.10;99.90
52743;DHT22;55583;53.012;6.556;2022-11-20T04:31:32;-0.10;99.90
52743;DHT22;55583;53.012;6.556;2022-11-20T04:34:03;0.00;99.90
52743;DHT22;55583;53.012;6.556;2022-11-20T04:36:30;-0.10;99.90
52743;DHT22;55583;53.012;6.556;2022-11-20T04:38:58;-0.10;99.90
52743;DHT22;55583;53.012;6.556;2022-11-20T04:41:26;-0.10;99.90
52743;DHT22;55583;53.012;6.556;2022-11-20T04:43:54;-0.10;99.90
52743;DHT22;55583;53.012;6.556;2022-11-20T04:46:25;-0.10;99.90
52743;DHT22;55583;53.012;6.556;2022-11-20T04:48:51;-0.10;99.90
52743;DHT22;55583;53.012;6.556;2022-11-20T04:51:16;-0.10;99.90
52743;DHT22;55583;53.012;6.556;2022-11-20T04:53:42;0.00;99.90
52743;DHT22;55583;53.012;6.556;2022-11-20T04:56:10;0.00;99.90
52743;DHT22;55583;53.012;6.556;2022-11-20T04:58:36;0.00;99.90
52743;DHT22;55583;53.012;6.556;2022-11-20T05:01:07;0.00;99.90
52743;DHT22;55583;53.012;6.556;2022-11-20T05:03:34;0.00;99.90
52743;DHT22;55583;53.012;6.556;2022-11-20T05:06:04;0.00;99.90
52743;DHT22;55583;53.012;6.556;2022-11-20T05:08:30;0.00;99.90
52743;DHT22;55583;53.012;6.556;2022-11-20T05:11:01;0.00;99.90
52743;DHT22;55583;53.012;6.556;2022-11-20T05:13:27;0.00;99.90
52743;DHT22;55583;53.012;6.556;2022-11-20T05:15:53;0.00;99.90
52743;DHT22;55583;53.012;6.556;2022-11-20T05:18:18;0.00;99.90
52743;DHT22;55583;53.012;6.556;2022-11-20T05:20:44;0.00;99.90
52743;DHT22;55583;53.012;6.556;2022-11-20T05:23:09;0.00;99.90
52743;DHT22;55583;53.012;6.556;2022-11-20T05:25:35;0.10;99.90
52743;DHT22;55583;53.012;6.556;2022-11-20T05:28:01;0.10;99.90
52743;DHT22;55583;53.012;6.556;2022-11-20T05:30:26;0.10;99.90
52743;DHT22;55583;53.012;6.556;2022-11-20T05:32:52;0.10;99.90
52743;DHT22;55583;53.012;6.556;2022-11-20T05:35:17;0.10;99.90
52743;DHT22;55583;53.012;6.556;2022-11-20T05:37:43;0.10;99.90
52743;DHT22;55583;53.012;6.556;2022-11-20T05:40:09;0.10;99.90
52743;DHT22;55583;53.012;6.556;2022-11-20T05:42:35;0.10;99.90
52743;DHT22;55583;53.012;6.556;2022-11-20T05:45:02;0.10;99.90
52743;DHT22;55583;53.012;6.556;2022-11-20T05:47:33;0.10;99.90
52743;DHT22;55583;53.012;6.556;2022-11-20T05:50:00;0.10;99.90
52743;DHT22;55583;53.012;6.556;2022-11-20T05:52:29;0.10;99.90
52743;DHT22;55583;53.012;6.556;2022-11-20T05:54:55;0.20;99.90
52743;DHT22;55583;53.012;6.556;2022-11-20T05:57:21;0.10;99.90
52743;DHT22;55583;53.012;6.556;2022-11-20T05:59:46;0.10;99.90
52743;DHT22;55583;53.012;6.556;2022-11-20T06:02:12;0.10;99.90
52743;DHT22;55583;53.012;6.556;2022-11-20T06:04:37;0.20;99.90
52743;DHT22;55583;53.012;6.556;2022-11-20T06:07:05;0.10;99.90
52743;DHT22;55583;53.012;6.556;2022-11-20T06:09:30;0.20;99.90
52743;DHT22;55583;53.012;6.556;2022-11-20T06:11:56;0.20;99.90
52743;DHT22;55583;53.012;6.556;2022-11-20T06:14:22;0.20;99.90
52743;DHT22;55583;53.012;6.556;2022-11-20T06:16:47;0.20;99.90
52743;DHT22;55583;53.012;6.556;2022-11-20T06:19:13;0.20;99.90
52743;DHT22;55583;53.012;6.556;2022-11-20T06:21:38;0.50;99.90
52743;DHT22;55583;53.012;6.556;2022-11-20T06:24:04;0.20;99.90
52743;DHT22;55583;53.012;6.556;2022-11-20T06:26:30;0.20;99.90
52743;DHT22;55583;53.012;6.556;2022-11-20T06:28:56;0.20;99.90
52743;DHT22;55583;53.012;6.556;2022-11-20T06:31:24;0.20;99.90
52743;DHT22;55583;53.012;6.556;2022-11-20T06:33:50;0.30;99.90
52743;DHT22;55583;53.012;6.556;2022-11-20T06:36:17;0.20;99.90
52743;DHT22;55583;53.012;6.556;2022-11-20T06:38:43;0.30;99.90
52743;DHT22;55583;53.012;6.556;2022-11-20T06:41:14;0.30;99.90
52743;DHT22;55583;53.012;6.556;2022-11-20T06:43:40;0.30;99.90
52743;DHT22;55583;53.012;6.556;2022-11-20T06:46:06;0.30;99.90
52743;DHT22;55583;53.012;6.556;2022-11-20T06:48:31;0.30;99.90
52743;DHT22;55583;53.012;6.556;2022-11-20T06:50:57;0.30;99.90
52743;DHT22;55583;53.012;6.556;2022-11-20T06:53:24;0.30;99.90
52743;DHT22;55583;53.012;6.556;2022-11-20T06:55:50;0.30;99.90
52743;DHT22;55583;53.012;6.556;2022-11-20T06:58:16;0.30;99.90
52743;DHT22;55583;53.012;6.556;2022-11-20T07:00:43;0.30;99.90
52743;DHT22;55583;53.012;6.556;2022-11-20T07:03:10;0.30;99.90
52743;DHT22;55583;53.012;6.556;2022-11-20T07:05:36;0.30;99.90
52743;DHT22;55583;53.012;6.556;2022-11-20T07:08:03;0.30;99.90
52743;DHT22;55583;53.012;6.556;2022-11-20T07:10:28;0.30;99.90
52743;DHT22;55583;53.012;6.556;2022-11-20T07:12:54;0.30;99.90
52743;DHT22;55583;53.012;6.556;2022-11-20T07:15:21;0.30;99.90
52743;DHT22;55583;53.012;6.556;2022-11-20T07:17:47;0.30;99.90
52743;DHT22;55583;53.012;6.556;2022-11-20T07:20:14;0.30;99.90
52743;DHT22;55583;53.012;6.556;2022-11-20T07:22:39;0.80;99.90
52743;DHT22;55583;53.012;6.556;2022-11-20T07:25:06;0.30;99.90
52743;DHT22;55583;53.012;6.556;2022-11-20T07:27:32;0.40;99.90
52743;DHT22;55583;53.012;6.556;2022-11-20T07:29:57;0.40;99.90
52743;DHT22;55583;53.012;6.556;2022-11-20T07:32:23;0.40;99.90
52743;DHT22;55583;53.012;6.556;2022-11-20T07:34:49;0.40;99.90
52743;DHT22;55583;53.012;6.556;2022-11-20T07:37:15;0.40;99.90
52743;DHT22;55583;53.012;6.556;2022-11-20T07:39:41;0.40;99.90
52743;DHT22;55583;53.012;6.556;2022-11-20T07:42:07;0.40;99.90
52743;DHT22;55583;53.012;6.556;2022-11-20T07:44:33;0.40;99.90
52743;DHT22;55583;53.012;6.556;2022-11-20T07:46:59;0.40;99.90
52743;DHT22;55583;53.012;6.556;2022-11-20T07:49:25;0.40;99.90
52743;DHT22;55583;53.012;6.556;2022-11-20T07:51:51;0.40;99.90
52743;DHT22;55583;53.012;6.556;2022-11-20T07:54:18;0.50;99.90
52743;DHT22;55583;53.012;6.556;2022-11-20T07:56:44;0.50;99.90
52743;DHT22;55583;53.012;6.556;2022-11-20T07:59:10;0.60;99.90
52743;DHT22;55583;53.012;6.556;2022-11-20T08:01:37;0.50;99.90
52743;DHT22;55583;53.012;6.556;2022-11-20T08:04:03;0.50;99.90
52743;DHT22;55583;53.012;6.556;2022-11-20T08:06:29;0.60;99.90
52743;DHT22;55583;53.012;6.556;2022-11-20T08:08:54;0.60;99.90
52743;DHT22;55583;53.012;6.556;2022-11-20T08:11:20;0.60;99.90
52743;DHT22;55583;53.012;6.556;2022-11-20T08:14:04;0.60;99.90
52743;DHT22;55583;53.012;6.556;2022-11-20T08:16:40;0.60;99.90
52743;DHT22;55583;53.012;6.556;2022-11-20T08:19:06;0.70;99.90
52743;DHT22;55583;53.012;6.556;2022-11-20T08:21:31;0.70;99.90
52743;DHT22;55583;53.012;6.556;2022-11-20T08:23:58;0.80;99.90
52743;DHT22;55583;53.012;6.556;2022-11-20T08:26:24;0.80;99.90
52743;DHT22;55583;53.012;6.556;2022-11-20T08:28:53;0.90;99.90
52743;DHT22;55583;53.012;6.556;2022-11-20T08:31:20;0.90;99.90
52743;DHT22;55583;53.012;6.556;2022-11-20T08:33:46;1.00;99.90
52743;DHT22;55583;53.012;6.556;2022-11-20T08:36:11;1.00;99.90
52743;DHT22;55583;53.012;6.556;2022-11-20T08:38:37;1.00;99.90
52743;DHT22;55583;53.012;6.556;2022-11-20T08:41:04;1.10;99.90
52743;DHT22;55583;53.012;6.556;2022-11-20T08:43:49;1.20;99.90
52743;DHT22;55583;53.012;6.556;2022-11-20T08:46:16;1.20;99.90
52743;DHT22;55583;53.012;6.556;2022-11-20T08:48:41;1.20;99.90
52743;DHT22;55583;53.012;6.556;2022-11-20T08:51:07;1.20;99.90
52743;DHT22;55583;53.012;6.556;2022-11-20T08:53:33;1.30;99.90
52743;DHT22;55583;53.012;6.556;2022-11-20T08:55:59;1.30;99.90
52743;DHT22;55583;53.012;6.556;2022-11-20T08:58:25;1.30;99.90
52743;DHT22;55583;53.012;6.556;2022-11-20T09:00:50;1.40;99.90
52743;DHT22;55583;53.012;6.556;2022-11-20T09:03:16;1.40;99.90
52743;DHT22;55583;53.012;6.556;2022-11-20T09:05:42;1.40;99.90
52743;DHT22;55583;53.012;6.556;2022-11-20T09:08:08;1.40;99.90
52743;DHT22;55583;53.012;6.556;2022-11-20T09:10:34;1.40;99.90
52743;DHT22;55583;53.012;6.556;2022-11-20T09:12:59;1.40;99.90
52743;DHT22;55583;53.012;6.556;2022-11-20T09:15:25;1.50;99.90
52743;DHT22;55583;53.012;6.556;2022-11-20T09:17:55;1.50;99.90
52743;DHT22;55583;53.012;6.556;2022-11-20T09:20:21;1.50;99.90
52743;DHT22;55583;53.012;6.556;2022-11-20T09:22:47;1.50;99.90
52743;DHT22;55583;53.012;6.556;2022-11-20T09:25:13;1.60;99.90
52743;DHT22;55583;53.012;6.556;2022-11-20T09:27:39;1.60;99.90
52743;DHT22;55583;53.012;6.556;2022-11-20T09:30:07;1.70;99.90
52743;DHT22;55583;53.012;6.556;2022-11-20T09:32:32;1.70;99.90
52743;DHT22;55583;53.012;6.556;2022-11-20T09:34:58;1.70;99.90
52743;DHT22;55583;53.012;6.556;2022-11-20T09:37:24;1.70;99.90
52743;DHT22;55583;53.012;6.556;2022-11-20T09:39:49;1.70;99.90
52743;DHT22;55583;53.012;6.556;2022-11-20T09:42:25;1.70;99.90
52743;DHT22;55583;53.012;6.556;2022-11-20T09:48:03;1.70;99.90
52743;DHT22;55583;53.012;6.556;2022-11-20T09:50:45;1.60;99.90
52743;DHT22;55583;53.012;6.556;2022-11-20T09:55:45;1.70;99.90
52743;DHT22;55583;53.012;6.556;2022-11-20T10:00:56;1.90;99.90
52743;DHT22;55583;53.012;6.556;2022-11-20T10:06:18;1.90;99.90
52743;DHT22;55583;53.012;6.556;2022-11-20T10:14:37;2.10;99.90
52743;DHT22;55583;53.012;6.556;2022-11-20T10:17:31;2.20;99.90
52743;DHT22;55583;53.012;6.556;2022-11-20T10:20:14;2.30;99.90
52743;DHT22;55583;53.012;6.556;2022-11-20T10:25:19;2.50;99.90
52743;DHT22;55583;53.012;6.556;2022-11-20T10:28:14;2.60;99.90
52743;DHT22;55583;53.012;6.556;2022-11-20T10:30:44;2.60;99.90
52743;DHT22;55583;53.012;6.556;2022-11-20T10:33:17;2.70;99.90
52743;DHT22;55583;53.012;6.556;2022-11-20T10:38:23;2.90;99.90
52743;DHT22;55583;53.012;6.556;2022-11-20T10:41:00;2.90;99.90
52743;DHT22;55583;53.012;6.556;2022-11-20T10:43:45;3.00;99.90
52743;DHT22;55583;53.012;6.556;2022-11-20T10:46:18;3.00;99.90
52743;DHT22;55583;53.012;6.556;2022-11-20T10:48:46;3.10;99.90
52743;DHT22;55583;53.012;6.556;2022-11-20T10:56:53;3.30;99.90
52743;DHT22;55583;53.012;6.556;2022-11-20T10:59:38;3.30;99.90
52743;DHT22;55583;53.012;6.556;2022-11-20T11:02:21;3.30;99.90
52743;DHT22;55583;53.012;6.556;2022-11-20T11:04:51;3.30;99.90
52743;DHT22;55583;53.012;6.556;2022-11-20T11:07:43;3.30;99.90
52743;DHT22;55583;53.012;6.556;2022-11-20T11:10:48;3.30;99.90
52743;DHT22;55583;53.012;6.556;2022-11-20T11:13:26;3.30;99.90
52743;DHT22;55583;53.012;6.556;2022-11-20T11:15:53;3.30;99.90
52743;DHT22;55583;53.012;6.556;2022-11-20T11:18:30;3.30;99.90
52743;DHT22;55583;53.012;6.556;2022-11-20T11:20:59;3.40;99.90
52743;DHT22;55583;53.012;6.556;2022-11-20T11:23:39;3.40;99.90
52743;DHT22;55583;53.012;6.556;2022-11-20T11:26:18;3.50;99.90
52743;DHT22;55583;53.012;6.556;2022-11-20T11:28:53;3.60;99.90
52743;DHT22;55583;53.012;6.556;2022-11-20T11:31:28;3.60;99.90
52743;DHT22;55583;53.012;6.556;2022-11-20T11:34:06;3.70;99.90
52743;DHT22;55583;53.012;6.556;2022-11-20T11:36:34;3.80;99.90
52743;DHT22;55583;53.012;6.556;2022-11-20T11:39:15;3.80;99.90
52743;DHT22;55583;53.012;6.556;2022-11-20T11:41:41;3.90;99.90
52743;DHT22;55583;53.012;6.556;2022-11-20T11:44:30;3.90;99.90
52743;DHT22;55583;53.012;6.556;2022-11-20T11:47:26;4.00;99.90
52743;DHT22;55583;53.012;6.556;2022-11-20T11:50:19;4.10;99.90
52743;DHT22;55583;53.012;6.556;2022-11-20T11:53:12;4.10;99.90
52743;DHT22;55583;53.012;6.556;2022-11-20T11:55:59;4.20;99.90
52743;DHT22;55583;53.012;6.556;2022-11-20T11:58:47;4.20;99.90
52743;DHT22;55583;53.012;6.556;2022-11-20T12:04:14;4.30;99.90
52743;DHT22;55583;53.012;6.556;2022-11-20T12:06:56;4.30;99.90
52743;DHT22;55583;53.012;6.556;2022-11-20T12:09:26;4.40;99.90
52743;DHT22;55583;53.012;6.556;2022-11-20T12:12:18;4.50;99.90
52743;DHT22;55583;53.012;6.556;2022-11-20T12:14:47;4.50;99.90
52743;DHT22;55583;53.012;6.556;2022-11-20T12:17:15;4.60;99.90
52743;DHT22;55583;53.012;6.556;2022-11-20T12:19:41;4.70;99.90
52743;DHT22;55583;53.012;6.556;2022-11-20T12:22:29;4.80;99.90
52743;DHT22;55583;53.012;6.556;2022-11-20T12:25:16;4.90;99.90
52743;DHT22;55583;53.012;6.556;2022-11-20T12:30:27;4.90;99.90
52743;DHT22;55583;53.012;6.556;2022-11-20T12:41:29;4.60;99.90
52743;DHT22;55583;53.012;6.556;2022-11-20T12:50:02;4.30;99.90
52743;DHT22;55583;53.012;6.556;2022-11-20T13:06:45;5.00;99.90
52743;DHT22;55583;53.012;6.556;2022-11-20T13:09:16;5.40;99.90
52743;DHT22;55583;53.012;6.556;2022-11-20T13:12:49;5.00;99.90
52743;DHT22;55583;53.012;6.556;2022-11-20T13:15:11;4.90;99.90
52743;DHT22;55583;53.012;6.556;2022-11-20T13:18:00;4.80;98.50
52743;DHT22;55583;53.012;6.556;2022-11-20T13:20:27;4.70;99.90
52743;DHT22;55583;53.012;6.556;2022-11-20T13:22:54;4.70;99.90
52743;DHT22;55583;53.012;6.556;2022-11-20T13:25:24;4.70;99.90
52743;DHT22;55583;53.012;6.556;2022-11-20T13:27:50;4.70;99.90
52743;DHT22;55583;53.012;6.556;2022-11-20T13:30:29;4.70;99.90
52743;DHT22;55583;53.012;6.556;2022-11-20T13:33:09;4.80;99.90
52743;DHT22;55583;53.012;6.556;2022-11-20T13:35:41;4.80;99.90
52743;DHT22;55583;53.012;6.556;2022-11-20T13:38:09;4.80;99.90
52743;DHT22;55583;53.012;6.556;2022-11-20T13:40:53;4.80;99.90
52743;DHT22;55583;53.012;6.556;2022-11-20T13:43:40;4.70;99.90
52743;DHT22;55583;53.012;6.556;2022-11-20T13:46:08;4.60;97.00
52743;DHT22;55583;53.012;6.556;2022-11-20T13:48:45;4.40;98.90
52743;DHT22;55583;53.012;6.556;2022-11-20T13:57:01;4.20;99.90
52743;DHT22;55583;53.012;6.556;2022-11-20T14:02:00;4.00;99.90
52743;DHT22;55583;53.012;6.556;2022-11-20T14:04:35;4.00;99.90
52743;DHT22;55583;53.012;6.556;2022-11-20T14:07:01;3.90;99.70
52743;DHT22;55583;53.012;6.556;2022-11-20T14:09:32;4.40;99.90
52743;DHT22;55583;53.012;6.556;2022-11-20T14:11:59;3.80;99.90
52743;DHT22;55583;53.012;6.556;2022-11-20T14:14:26;3.80;99.90
52743;DHT22;55583;53.012;6.556;2022-11-20T14:17:05;3.80;99.90
52743;DHT22;55583;53.012;6.556;2022-11-20T14:19:31;3.70;99.90
52743;DHT22;55583;53.012;6.556;2022-11-20T14:24:39;4.70;99.90
52743;DHT22;55583;53.012;6.556;2022-11-20T14:27:10;3.60;99.90
52743;DHT22;55583;53.012;6.556;2022-11-20T14:29:38;3.60;99.90
52743;DHT22;55583;53.012;6.556;2022-11-20T14:32:04;3.60;99.90
52743;DHT22;55583;53.012;6.556;2022-11-20T14:34:32;3.50;99.90
52743;DHT22;55583;53.012;6.556;2022-11-20T14:37:00;3.50;99.90
52743;DHT22;55583;53.012;6.556;2022-11-20T14:39:34;3.50;99.90
52743;DHT22;55583;53.012;6.556;2022-11-20T14:42:01;3.40;99.90
52743;DHT22;55583;53.012;6.556;2022-11-20T14:44:32;3.30;99.90
52743;DHT22;55583;53.012;6.556;2022-11-20T14:47:00;3.30;99.90
52743;DHT22;55583;53.012;6.556;2022-11-20T14:49:30;3.30;99.90
52743;DHT22;55583;53.012;6.556;2022-11-20T14:52:26;3.20;99.90
52743;DHT22;55583;53.012;6.556;2022-11-20T14:54:54;3.20;99.90
52743;DHT22;55583;53.012;6.556;2022-11-20T14:57:29;3.00;99.90
52743;DHT22;55583;53.012;6.556;2022-11-20T15:02:43;3.80;99.90
52743;DHT22;55583;53.012;6.556;2022-11-20T15:05:09;2.90;99.90
52743;DHT22;55583;53.012;6.556;2022-11-20T15:07:42;2.80;99.90
52743;DHT22;55583;53.012;6.556;2022-11-20T15:10:27;2.70;99.90
52743;DHT22;55583;53.012;6.556;2022-11-20T15:12:55;2.60;99.90
52743;DHT22;55583;53.012;6.556;2022-11-20T15:15:31;2.60;99.90
52743;DHT22;55583;53.012;6.556;2022-11-20T15:17:58;2.60;99.90
52743;DHT22;55583;53.012;6.556;2022-11-20T15:20:27;4.10;99.90
52743;DHT22;55583;53.012;6.556;2022-11-20T15:22:54;2.60;99.90
52743;DHT22;55583;53.012;6.556;2022-11-20T15:25:19;2.60;99.90
52743;DHT22;55583;53.012;6.556;2022-11-20T15:27:52;2.60;99.90
52743;DHT22;55583;53.012;6.556;2022-11-20T15:30:20;2.50;99.90
52743;DHT22;55583;53.012;6.556;2022-11-20T15:32:46;2.60;99.90
52743;DHT22;55583;53.012;6.556;2022-11-20T15:35:13;2.60;99.90
52743;DHT22;55583;53.012;6.556;2022-11-20T15:37:39;2.50;99.90
52743;DHT22;55583;53.012;6.556;2022-11-20T15:40:06;2.60;99.90
52743;DHT22;55583;53.012;6.556;2022-11-20T15:42:32;2.50;99.90
52743;DHT22;55583;53.012;6.556;2022-11-20T15:44:58;2.50;99.90
52743;DHT22;55583;53.012;6.556;2022-11-20T15:47:30;2.50;99.90
52743;DHT22;55583;53.012;6.556;2022-11-20T15:49:57;2.50;99.90
52743;DHT22;55583;53.012;6.556;2022-11-20T15:52:22;2.50;99.90
52743;DHT22;55583;53.012;6.556;2022-11-20T15:54:48;2.40;99.90
52743;DHT22;55583;53.012;6.556;2022-11-20T15:57:14;2.50;99.90
52743;DHT22;55583;53.012;6.556;2022-11-20T15:59:39;2.40;99.90
52743;DHT22;55583;53.012;6.556;2022-11-20T16:02:14;2.40;99.90
52743;DHT22;55583;53.012;6.556;2022-11-20T16:04:41;2.40;99.90
52743;DHT22;55583;53.012;6.556;2022-11-20T16:07:06;2.40;99.90
52743;DHT22;55583;53.012;6.556;2022-11-20T16:09:32;2.30;99.90
52743;DHT22;55583;53.012;6.556;2022-11-20T16:11:58;2.40;99.90
52743;DHT22;55583;53.012;6.556;2022-11-20T16:14:27;2.30;99.90
52743;DHT22;55583;53.012;6.556;2022-11-20T16:17:11;2.30;99.90
52743;DHT22;55583;53.012;6.556;2022-11-20T16:19:37;2.30;99.90
52743;DHT22;55583;53.012;6.556;2022-11-20T16:22:03;2.30;99.90
52743;DHT22;55583;53.012;6.556;2022-11-20T16:24:29;2.30;99.90
52743;DHT22;55583;53.012;6.556;2022-11-20T16:26:56;2.30;99.90
52743;DHT22;55583;53.012;6.556;2022-11-20T16:29:21;2.20;99.90
52743;DHT22;55583;53.012;6.556;2022-11-20T16:31:47;2.20;99.90
52743;DHT22;55583;53.012;6.556;2022-11-20T16:34:15;2.30;99.90
52743;DHT22;55583;53.012;6.556;2022-11-20T16:36:42;2.30;99.90
52743;DHT22;55583;53.012;6.556;2022-11-20T16:39:09;2.20;99.90
52743;DHT22;55583;53.012;6.556;2022-11-20T16:41:35;2.20;99.90
52743;DHT22;55583;53.012;6.556;2022-11-20T16:44:05;2.20;99.90
52743;DHT22;55583;53.012;6.556;2022-11-20T16:46:32;2.20;99.90
52743;DHT22;55583;53.012;6.556;2022-11-20T16:48:59;2.20;99.90
52743;DHT22;55583;53.012;6.556;2022-11-20T16:51:26;2.20;99.90
52743;DHT22;55583;53.012;6.556;2022-11-20T16:53:52;2.20;99.90
52743;DHT22;55583;53.012;6.556;2022-11-20T16:56:22;2.20;99.90
52743;DHT22;55583;53.012;6.556;2022-11-20T16:58:49;2.20;99.90
52743;DHT22;55583;53.012;6.556;2022-11-20T17:01:18;2.20;99.90
52743;DHT22;55583;53.012;6.556;2022-11-20T17:03:46;2.20;99.90
52743;DHT22;55583;53.012;6.556;2022-11-20T17:06:17;2.20;99.90
52743;DHT22;55583;53.012;6.556;2022-11-20T17:08:43;2.20;99.90
52743;DHT22;55583;53.012;6.556;2022-11-20T17:11:12;2.10;99.90
52743;DHT22;55583;53.012;6.556;2022-11-20T17:13:38;2.20;99.90